Mr Chip — WDC3048 — position and weather

sailwx.info

Track history (hours):
 
Tides and Currents Weather Stations Pressure Air Temp Water Temp Dewpoint Dewpoint Depression Visibility Wind Speed Wind Dir Waves Ship Positions

Mr Chip

Owner: CENTRAL BOAT RENTALS, BERWICK, LA. More information available from US FCC via Universal Licensing System and Coast Guard Vessel Documentation Center.

Last reported at 2017-Dec-12 15:36 UTC. Time now 2017-Dec-17 23:12 UTC.
Position N 29°34' W 090°57'.

Length 14 m; draft 2.3 m.

Type: Tug. MMSI: 367001990.

Date/timePositionNaut miles runAvg speedWind from/ knotsBaromVisibWave heightAir tempDewpointWater temp
2017-Dec-12 15:36N 29°34' W 090°57'1 5.6
2017-Dec-12 15:29N 29°34' W 090°56'3 5.6
2017-Dec-12 14:54N 29°32' W 090°53'2 5.4
2017-Dec-12 14:30N 29°32' W 090°51'3 5.6
2017-Dec-12 14:00N 29°32' W 090°47'2 4.9
2017-Dec-12 13:30N 29°34' W 090°45'2 4.6
2017-Dec-12 13:00N 29°35' W 090°43'2 4.1
2017-Dec-12 12:30N 29°37' W 090°42'3 5.2
2017-Dec-12 12:00N 29°36' W 090°39'2 3.4
2017-Dec-12 11:30N 29°35' W 090°37'2 4.9
2017-Dec-12 11:00N 29°34' W 090°35'3 5.4
2017-Dec-12 10:30N 29°34' W 090°32'  
Track history (hours):
 
Tides and Currents Weather Stations Pressure Air Temp Water Temp Dewpoint Dewpoint Depression Visibility Wind Speed Wind Dir Waves Ship Positions

Mr Chip

Owner: CENTRAL BOAT RENTALS, BERWICK, LA. More information available from US FCC via Universal Licensing System and Coast Guard Vessel Documentation Center.

Last reported at 2017-Dec-12 15:36 UTC. Time now 2017-Dec-17 23:12 UTC.
Position N 29°34' W 090°57'.

Length 14 m; draft 2.3 m.

Type: Tug. MMSI: 367001990.

Date/timePositionNaut miles runAvg speedWind from/ knotsBaromVisibWave heightAir tempDewpointWater temp
2017-Dec-12 15:36N 29°34' W 090°57'1 5.6
2017-Dec-12 15:29N 29°34' W 090°56'3 5.6
2017-Dec-12 14:54N 29°32' W 090°53'2 5.4
2017-Dec-12 14:30N 29°32' W 090°51'3 5.6
2017-Dec-12 14:00N 29°32' W 090°47'2 4.9
2017-Dec-12 13:30N 29°34' W 090°45'2 4.6
2017-Dec-12 13:00N 29°35' W 090°43'2 4.1
2017-Dec-12 12:30N 29°37' W 090°42'3 5.2
2017-Dec-12 12:00N 29°36' W 090°39'2 3.4
2017-Dec-12 11:30N 29°35' W 090°37'2 4.9
2017-Dec-12 11:00N 29°34' W 090°35'3 5.4
2017-Dec-12 10:30N 29°34' W 090°32'  

Dump ship's entire track history